Ambulong, Philippines

1:50 AM PHT on August 23, 2014 (GMT +0800)
UP Los Banos | Change Station
CLOSE
Current Station
Personal Weather Station
Location: Los Baños, CALABARZON
Elevation: 860 ft
Nearby Weather Stations

Elev 860 ft 14.17 °N, 121.24 °E | Updated 9 minutes ago

Scattered Clouds
Scattered Clouds
78.2 °F
Feels Like 81 °F
N
0.0
Wind Variable Wind from East
Gusts 2.0 mph

Today
High -- | Low -- °F
--% Chance of Precip.
Yesterday
High -- | Low -- °F
Precip. -- in
5:43 AM 6:13 PM
Waning Crescent, 7% visible
Pressure 29.80 in
Visibility 6.2 miles
Clouds Few 2300 ft
Scattered Clouds 10000 ft
Heat Index 81 °F
Dew Point 74 °F
Humidity 86%
Rainfall 0.00 in
Snow Depth Not available.
UV 0 out of 12
Pollen Not available.
Air Quality Not available.
Flu Activity Not available.
METAR RPLL 221700Z 17004KT 140V220 9999 FEW023 SCT100 27/25 Q1009 NOSIG RMK A2980

More Conditions Fewer Conditions

Pressure 29.80 in
Visibility 6.2 miles
Clouds Few 2300 ft
Scattered Clouds 10000 ft
Heat Index 81 °F
Dew Point 74 °F
Humidity 86%
Rainfall 0.00 in
Snow Depth Not available.
UV 0 out of 12
Pollen Not available.
Air Quality Not available.
Flu Activity Not available.
METAR RPLL 221700Z 17004KT 140V220 9999 FEW023 SCT100 27/25 Q1009 NOSIG RMK A2980

More Conditions Fewer Conditions

10-Day Weather Forecast

Almanac

Astronomy

Aug. 23, 2014 Rise Set
Actual Time 5:43 AM PHT 6:13 PM PHT
Civil Twilight 5:21 AM PHT 6:35 PM PHT
Nautical Twilight 4:55 AM PHT 7:00 PM PHT
Astronomical Twilight 4:30 AM PHT 7:26 PM PHT
Moon 3:37 AM PHT (8/23) 4:30 PM PHT (8/23)
Length of Visible Light 13h 13m
Length of Day
12h 30m
Tomorrow will be 0m 43s shorter.
Waning Crescent, 7% of the Moon is Illuminated
Aug 22
Waning Crescent
Aug 25
New
Sep 2
First Quarter
Sep 8
Full
Sep 15
Last Quarter

Yesterday's Extremes

Country Highs Country Lows

Community

WunderPhotos

Upload Photos

1,746,206 photos uploaded!

WunderBlogs® & News

Nearby

Snow Depth

Not available.

Earthquake Activity

City Distance Mag. Time & Date
No recent earthquake activity has been reported nearby.
Minimum magnitude displayed is 2.5.

Coastal Water Temperatures

Place Temperature
No Stations Reporting

Nearby Weather Stations